Time;durP1;ratioP1;P1;durP2;ratioP2;P2;SDS_P1;SDS_P2;PMS_P1;PMS_P2;Temp;Humidity;BMP_temperature;BMP_pressure;BME280_temperature;BME280_humidity;BME280_pressure;Samples;Min_cycle;Max_cycle;Signal;HPM_P1;HPM_P2
2023/12/24 00:02:17;;;;;;;3.33;1.67;;;-1.60;99.90;-2.80;98353;;;;551332;257;24166;-82
2023/12/24 00:04:42;;;;;;;5.37;2.00;;;-1.50;99.90;-2.70;98357;;;;546412;259;24248;-81
2023/12/24 00:07:10;;;;;;;2.60;1.40;;;-1.40;99.90;-2.60;98355;;;;551168;257;24156;-82
2023/12/24 00:09:38;;;;;;;5.33;2.63;;;-1.40;99.90;-2.60;98374;;;;547399;259;24165;-82
2023/12/24 00:12:09;;;;;;;3.13;1.80;;;-1.30;99.90;-2.60;98371;;;;551313;256;24223;-82
2023/12/24 00:14:34;;;;;;;3.37;2.27;;;-1.60;99.90;-2.60;98363;;;;546430;259;25201;-81
2023/12/24 00:17:03;;;;;;;2.53;1.70;;;-1.30;99.90;-2.70;98379;;;;550588;257;24130;-81
2023/12/24 00:19:31;;;;;;;3.03;1.77;;;-1.30;99.90;-2.70;98375;;;;546820;259;24162;-81
2023/12/24 00:21:59;;;;;;;2.53;1.63;;;-1.20;99.90;-2.70;98379;;;;550642;256;24149;-82
2023/12/24 00:24:27;;;;;;;3.47;2.10;;;-1.40;99.90;-2.70;98376;;;;546423;259;24198;-82
2023/12/24 00:26:55;;;;;;;2.37;1.60;;;-1.40;99.90;-2.80;98396;;;;550676;257;24154;-81
2023/12/24 00:29:23;;;;;;;6.77;2.10;;;-1.40;99.90;-2.80;98396;;;;546953;259;24154;-81
2023/12/24 00:31:51;;;;;;;5.17;1.90;;;-1.50;99.90;-2.80;98382;;;;550831;257;24149;-82
2023/12/24 00:34:19;;;;;;;8.13;2.87;;;-1.50;99.90;-2.80;98396;;;;546657;259;24139;-81
2023/12/24 00:36:48;;;;;;;5.23;2.40;;;-1.50;99.90;-2.80;98402;;;;550428;257;24158;-82
2023/12/24 00:39:16;;;;;;;4.53;2.30;;;-1.50;99.90;-2.90;98401;;;;546444;259;24146;-83
2023/12/24 00:41:44;;;;;;;5.70;2.73;;;-1.70;99.90;-2.90;98405;;;;550788;257;24159;-81
2023/12/24 00:44:12;;;;;;;3.43;2.13;;;-1.50;99.90;-2.90;98409;;;;547318;259;24165;-81
2023/12/24 00:46:40;;;;;;;6.63;2.90;;;-1.40;99.90;-2.90;98422;;;;551332;256;24167;-81
2023/12/24 00:49:08;;;;;;;5.00;2.80;;;-1.70;99.90;-2.90;98420;;;;546983;259;24156;-82
2023/12/24 00:51:36;;;;;;;5.93;3.00;;;-1.60;99.90;-3.00;98437;;;;550466;257;24197;-82
2023/12/24 00:54:05;;;;;;;7.40;2.80;;;-1.70;99.90;-3.00;98441;;;;546386;259;24151;-82
2023/12/24 00:56:32;;;;;;;7.27;2.93;;;-1.80;99.90;-3.00;98435;;;;546446;259;24146;-82
2023/12/24 00:59:00;;;;;;;5.80;2.40;;;-1.70;99.90;-3.00;98443;;;;550346;257;24185;-83
2023/12/24 01:01:28;;;;;;;6.83;2.90;;;-1.80;99.90;-3.00;98457;;;;546564;259;24152;-83
2023/12/24 01:03:56;;;;;;;3.57;2.10;;;-1.60;99.90;-3.00;98453;;;;550385;257;24211;-83
2023/12/24 01:06:24;;;;;;;2.43;1.50;;;-1.60;99.90;-2.90;98448;;;;546709;259;24140;-82
2023/12/24 01:08:52;;;;;;;3.87;2.00;;;-1.60;99.90;-2.80;98456;;;;551611;256;24165;-82
2023/12/24 01:11:20;;;;;;;3.20;1.70;;;-1.60;99.90;-2.80;98463;;;;548010;259;24148;-82
2023/12/24 01:13:48;;;;;;;5.23;1.47;;;-1.70;99.90;-2.80;98463;;;;551534;257;24160;-82
2023/12/24 01:16:16;;;;;;;2.77;1.37;;;-1.50;99.90;-2.80;98468;;;;547597;259;24135;-81
2023/12/24 01:18:44;;;;;;;2.20;1.60;;;-1.50;99.90;-2.80;98473;;;;551315;257;24140;-82
2023/12/24 01:21:12;;;;;;;3.63;1.67;;;-1.50;99.90;-2.70;98456;;;;547853;257;24138;-84
2023/12/24 01:23:40;;;;;;;2.30;1.30;;;-1.60;99.90;-2.70;98465;;;;551060;257;24152;-84
2023/12/24 01:26:08;;;;;;;1.93;1.60;;;-1.50;99.90;-2.80;98459;;;;550608;258;24149;-81
2023/12/24 01:28:36;;;;;;;1.57;1.33;;;-1.50;99.90;-2.90;98464;;;;550682;258;24202;-82
2023/12/24 01:31:05;;;;;;;4.53;1.62;;;-1.60;99.90;-2.90;98469;;;;545894;258;35582;-83
2023/12/24 01:33:33;;;;;;;2.63;1.60;;;-1.40;99.90;-3.00;98471;;;;550691;258;24129;-82
2023/12/24 01:36:00;;;;;;;2.97;1.50;;;-1.70;99.90;-3.00;98460;;;;550722;258;24137;-81
2023/12/24 01:38:29;;;;;;;1.57;1.47;;;-1.80;99.90;-3.10;98463;;;;550686;258;24128;-82
2023/12/24 01:40:57;;;;;;;3.67;1.87;;;-1.90;99.90;-3.20;98466;;;;558590;257;24137;-81
2023/12/24 01:43:26;;;;;;;2.57;1.60;;;-2.00;99.90;-3.30;98461;;;;550331;258;24126;-81
2023/12/24 01:45:57;;;;;;;2.33;1.60;;;-2.00;99.90;-3.40;98463;;;;550060;258;24143;-81
2023/12/24 01:48:23;;;;;;;6.03;1.27;;;-2.10;99.90;-3.40;98466;;;;555084;255;24118;-81
2023/12/24 01:50:51;;;;;;;1.37;1.23;;;-2.20;99.90;-3.50;98472;;;;543670;261;24171;-82
2023/12/24 01:53:19;;;;;;;3.80;1.60;;;-2.40;99.90;-3.60;98464;;;;546403;260;24109;-80
2023/12/24 01:55:47;;;;;;;4.13;1.70;;;-2.20;99.90;-3.60;98472;;;;555991;255;24115;-81
2023/12/24 01:58:15;;;;;;;2.67;1.80;;;-2.40;99.90;-3.70;98472;;;;555925;255;24128;-81
2023/12/24 02:00:44;;;;;;;2.67;1.97;;;-2.40;99.90;-3.70;98464;;;;555467;255;24117;-82
2023/12/24 02:03:12;;;;;;;4.00;1.90;;;-2.50;99.90;-3.80;98459;;;;554736;255;24116;-82
2023/12/24 02:05:40;;;;;;;3.80;1.80;;;-2.60;99.90;-3.80;98467;;;;554694;255;24127;-81
2023/12/24 02:08:12;;;;;;;3.10;1.70;;;-2.50;99.90;-3.80;98472;;;;555836;255;24120;-83
2023/12/24 02:10:36;;;;;;;4.00;2.10;;;-2.50;99.90;-3.80;98469;;;;555008;255;24150;-82
2023/12/24 02:13:05;;;;;;;3.73;2.07;;;-2.50;99.90;-3.80;98464;;;;554349;255;24182;-82
2023/12/24 02:15:36;;;;;;;2.80;1.63;;;-2.60;99.90;-3.80;98468;;;;554247;255;25165;-82
2023/12/24 02:18:01;;;;;;;7.27;2.20;;;-2.60;99.90;-3.90;98471;;;;553764;255;24141;-82
2023/12/24 02:20:28;;;;;;;4.07;2.50;;;-2.60;99.90;-3.90;98470;;;;556440;254;24119;-82
2023/12/24 02:22:57;;;;;;;4.57;2.40;;;-2.60;99.90;-3.90;98477;;;;557011;255;24126;-82
2023/12/24 02:25:25;;;;;;;2.10;1.70;;;-2.60;99.90;-3.90;98473;;;;555481;255;24148;-82
2023/12/24 02:27:59;;;;;;;3.17;1.80;;;-2.40;99.90;-4.00;98483;;;;556477;255;24134;-82
2023/12/24 02:30:27;;;;;;;1.23;1.00;;;-2.70;99.90;-4.00;98486;;;;555934;255;24126;-83
2023/12/24 02:32:55;;;;;;;3.73;1.67;;;-2.40;99.90;-4.00;98483;;;;555527;255;24134;-81
2023/12/24 02:35:23;;;;;;;3.40;1.60;;;-2.70;99.90;-4.10;98488;;;;556107;255;24136;-81
2023/12/24 02:37:51;;;;;;;3.00;1.50;;;-2.50;99.90;-4.00;98487;;;;558645;252;24112;-82
2023/12/24 02:40:19;;;;;;;1.50;1.40;;;-2.80;99.90;-4.00;98485;;;;566937;248;24129;-81
2023/12/24 02:42:46;;;;;;;2.90;1.70;;;-2.70;99.90;-4.00;98494;;;;567514;251;24089;-83
2023/12/24 02:45:14;;;;;;;2.90;1.43;;;-2.90;99.90;-4.00;98499;;;;559660;250;24099;-81
2023/12/24 02:47:42;;;;;;;3.10;1.83;;;-2.80;99.90;-4.00;98496;;;;571508;246;24076;-82
2023/12/24 02:50:10;;;;;;;2.77;1.67;;;-2.70;99.90;-3.90;98499;;;;549990;257;24097;-81
2023/12/24 02:52:38;;;;;;;4.00;1.60;;;-2.70;99.90;-3.80;98511;;;;559271;253;24135;-81
2023/12/24 02:55:06;;;;;;;3.23;1.50;;;-2.40;99.90;-3.80;98502;;;;558047;253;24112;-81
2023/12/24 02:57:34;;;;;;;2.53;1.90;;;-2.50;99.90;-3.80;98513;;;;563268;253;24103;-81
2023/12/24 03:00:02;;;;;;;2.80;1.67;;;-2.60;99.90;-3.90;98523;;;;557229;255;24117;-82
2023/12/24 03:02:30;;;;;;;6.23;1.87;;;-2.80;99.90;-3.90;98519;;;;553804;255;24134;-81
2023/12/24 03:04:58;;;;;;;3.00;1.30;;;-2.70;99.90;-4.00;98515;;;;553902;255;24120;-83
2023/12/24 03:07:26;;;;;;;3.63;1.43;;;-2.90;99.90;-4.00;98522;;;;555620;255;24129;-83
2023/12/24 03:09:53;;;;;;;1.83;1.50;;;-2.70;99.90;-4.10;98509;;;;554479;255;24114;-82
2023/12/24 03:12:21;;;;;;;4.27;1.50;;;-2.80;99.90;-4.00;98527;;;;563867;253;24125;-83
2023/12/24 03:14:50;;;;;;;2.43;1.57;;;-2.80;99.90;-4.10;98515;;;;544111;261;24158;-81
2023/12/24 03:17:17;;;;;;;4.17;1.50;;;-2.50;99.90;-4.10;98519;;;;563702;253;24114;-83
2023/12/24 03:19:45;;;;;;;3.40;1.63;;;-2.90;99.90;-4.10;98520;;;;564262;253;24079;-83
2023/12/24 03:22:13;;;;;;;3.70;2.37;;;0.00;99.90;-4.10;98526;;;;556502;255;24090;-82
2023/12/24 03:24:42;;;;;;;2.33;1.73;;;-2.70;99.90;-4.00;98522;;;;541169;259;35391;-82
2023/12/24 03:27:11;;;;;;;2.73;1.40;;;-2.70;99.90;-4.00;98528;;;;555731;253;24119;-82
2023/12/24 03:29:38;;;;;;;3.90;1.97;;;-2.70;99.90;-4.10;98542;;;;553634;258;24136;-82
2023/12/24 03:32:10;;;;;;;4.57;1.90;;;-2.90;99.90;-4.10;98541;;;;564783;248;24073;-82
2023/12/24 03:34:34;;;;;;;2.40;1.80;;;-3.10;99.90;-4.20;98540;;;;556370;255;24101;-82
2023/12/24 03:37:03;;;;;;;3.27;2.20;;;-2.80;99.90;-4.10;98549;;;;565249;252;24098;-81
2023/12/24 03:39:31;;;;;;;4.47;2.10;;;-2.80;99.90;-4.10;98542;;;;564971;252;24095;-82
2023/12/24 03:41:59;;;;;;;3.67;2.40;;;-2.90;99.90;-4.20;98538;;;;564530;252;24098;-81
2023/12/24 03:44:27;;;;;;;4.00;2.40;;;-2.80;99.90;-4.20;98539;;;;564252;253;24091;-83
2023/12/24 03:46:55;;;;;;;4.05;2.33;;;-3.00;99.90;-4.20;98549;;;;552291;255;35275;-83
2023/12/24 03:49:22;;;;;;;4.40;2.63;;;-2.90;99.90;-4.20;98556;;;;565333;253;24133;-82
2023/12/24 03:51:50;;;;;;;2.90;1.83;;;-3.00;99.90;-4.20;98561;;;;565044;253;24093;-82
2023/12/24 03:54:21;;;;;;;3.33;2.23;;;-3.00;99.90;-4.20;98562;;;;564217;253;24115;-83
2023/12/24 03:56:47;;;;;;;3.57;2.60;;;-2.90;99.90;-4.20;98560;;;;564161;253;24085;-82
2023/12/24 03:59:16;;;;;;;4.73;2.63;;;-2.90;99.90;-4.30;98549;;;;564155;253;24132;-83
2023/12/24 04:01:43;;;;;;;2.20;2.00;;;-2.90;99.90;-4.20;98553;;;;563992;253;24126;-82
2023/12/24 04:04:11;;;;;;;2.43;2.10;;;-2.70;99.90;-4.30;98550;;;;564244;253;24085;-81
2023/12/24 04:06:39;;;;;;;3.40;2.37;;;-1.90;99.90;-4.20;98547;;;;563640;253;24082;-82
2023/12/24 04:09:09;;;;;;;4.00;2.13;;;-3.00;99.90;-4.20;98545;;;;564011;253;24086;-83
2023/12/24 04:11:35;;;;;;;3.50;2.37;;;-2.90;99.90;-4.20;98536;;;;563325;255;24102;-82
2023/12/24 04:14:04;;;;;;;8.40;2.77;;;-2.90;99.90;-4.10;98537;;;;553917;258;24144;-82
2023/12/24 04:16:32;;;;;;;4.10;2.30;;;-3.00;99.90;-4.10;98541;;;;563761;253;24101;-83
2023/12/24 04:19:00;;;;;;;4.47;2.37;;;-2.80;99.90;-4.00;98537;;;;564248;253;24078;-81
2023/12/24 04:21:30;;;;;;;6.87;2.80;;;-2.70;99.90;-4.00;98544;;;;564184;253;24088;-82
2023/12/24 04:23:56;;;;;;;3.67;1.90;;;-2.70;99.90;-3.90;98542;;;;563694;255;24131;-82
2023/12/24 04:26:24;;;;;;;4.63;2.47;;;-2.70;99.90;-3.80;98544;;;;563468;254;24137;-82
2023/12/24 04:28:52;;;;;;;3.97;2.37;;;-2.60;99.90;-3.80;98549;;;;563872;253;24078;-83
2023/12/24 04:31:20;;;;;;;4.40;2.47;;;-2.50;99.90;-3.70;98555;;;;543625;261;24155;-82
2023/12/24 04:33:49;;;;;;;3.70;2.00;;;-2.50;99.90;-3.70;98552;;;;563726;254;25157;-82
2023/12/24 04:36:20;;;;;;;3.30;2.30;;;-2.50;99.90;-3.70;98565;;;;563910;253;24107;-82
2023/12/24 04:38:48;;;;;;;5.93;2.43;;;-2.30;99.90;-3.70;98565;;;;543920;261;24147;-82
2023/12/24 04:41:19;;;;;;;10.70;2.47;;;-2.50;99.90;-3.70;98572;;;;563900;254;25163;-83
2023/12/24 04:43:48;;;;;;;5.30;2.33;;;-2.10;99.90;-3.70;98569;;;;552804;258;24156;-83
2023/12/24 04:46:15;;;;;;;3.57;2.30;;;-2.50;99.90;-3.70;98572;;;;548425;255;24183;-81
2023/12/24 04:48:43;;;;;;;4.47;2.50;;;-2.60;99.90;-3.70;98568;;;;547628;259;24098;-82
2023/12/24 04:51:12;;;;;;;5.00;2.67;;;-2.40;99.90;-3.70;98591;;;;557727;255;24074;-82
2023/12/24 04:53:40;;;;;;;5.30;2.47;;;-2.30;99.90;-3.70;98587;;;;567039;247;24076;-82
2023/12/24 04:56:08;;;;;;;4.37;2.63;;;-2.50;99.90;-3.60;98593;;;;566676;252;24091;-83
2023/12/24 04:58:35;;;;;;;6.23;2.40;;;-2.40;99.90;-3.60;98579;;;;566577;252;24147;-83
2023/12/24 05:01:07;;;;;;;4.07;2.50;;;-2.30;99.90;-3.60;98586;;;;566700;252;24081;-82
2023/12/24 05:03:32;;;;;;;6.33;2.70;;;-2.30;99.90;-3.50;98584;;;;556417;258;24129;-82
2023/12/24 05:06:01;;;;;;;6.90;2.17;;;-2.30;99.90;-3.50;98596;;;;566436;250;24101;-81
2023/12/24 05:08:29;;;;;;;4.57;2.27;;;-2.20;99.90;-3.40;98583;;;;566589;250;24097;-81
2023/12/24 05:10:57;;;;;;;11.03;2.70;;;-2.50;99.90;-3.40;98581;;;;566374;252;24090;-82
2023/12/24 05:13:25;;;;;;;4.37;2.07;;;-2.10;99.90;-3.30;98585;;;;556243;249;24184;-82
2023/12/24 05:15:53;;;;;;;2.63;1.87;;;-2.10;99.90;-3.30;98589;;;;559719;253;24115;-81
2023/12/24 05:18:24;;;;;;;5.90;2.73;;;-2.00;99.90;-3.20;98582;;;;570440;237;24085;-83
2023/12/24 05:20:49;;;;;;;6.07;1.60;;;-2.00;99.90;-3.20;98591;;;;583812;241;24072;-82
2023/12/24 05:23:19;;;;;;;1.93;1.73;;;-1.90;99.90;-3.10;98591;;;;594340;241;24041;-80
2023/12/24 05:25:50;;;;;;;2.20;1.70;;;-2.00;99.90;-3.10;98586;;;;584743;241;24060;-81
2023/12/24 05:28:18;;;;;;;2.10;1.73;;;-2.00;99.90;-3.00;98598;;;;573490;246;24278;-81
2023/12/24 05:30:42;;;;;;;1.70;1.60;;;-1.70;99.90;-3.00;98594;;;;572493;249;24108;-81
2023/12/24 05:33:10;;;;;;;2.60;1.53;;;-1.70;99.90;-2.90;98596;;;;572131;250;24152;-82
2023/12/24 05:35:38;;;;;;;6.10;2.10;;;-1.70;99.90;-2.90;98585;;;;573274;250;24110;-82
2023/12/24 05:38:06;;;;;;;2.77;1.37;;;-1.60;99.90;-2.80;98593;;;;573873;250;24092;-82
2023/12/24 05:40:34;;;;;;;3.50;1.50;;;-1.50;99.90;-2.70;98588;;;;573339;250;24109;-82
2023/12/24 05:43:06;;;;;;;2.30;1.30;;;-1.50;99.90;-2.70;98594;;;;573863;250;24116;-81
2023/12/24 05:45:33;;;;;;;4.13;1.93;;;-1.60;99.90;-2.60;98593;;;;573356;246;24105;-81
2023/12/24 05:47:58;;;;;;;4.87;1.50;;;-1.60;99.90;-2.60;98603;;;;562856;250;24132;-81
2023/12/24 05:50:27;;;;;;;3.23;2.00;;;-1.20;99.90;-2.50;98604;;;;573564;250;24109;-81
2023/12/24 05:52:55;;;;;;;1.63;1.47;;;-1.30;99.90;-2.40;98604;;;;573444;250;24127;-82
2023/12/24 05:55:23;;;;;;;4.07;1.70;;;-1.30;99.90;-2.40;98608;;;;574829;248;24104;-82
2023/12/24 05:57:51;;;;;;;3.43;1.63;;;-1.30;99.90;-2.30;98598;;;;574794;250;24093;-82
2023/12/24 06:00:19;;;;;;;3.97;1.50;;;-0.90;99.90;-2.20;98601;;;;574267;250;24133;-82
2023/12/24 06:02:47;;;;;;;2.70;1.40;;;-0.90;99.90;-2.20;98600;;;;574635;250;24117;-82
2023/12/24 06:05:15;;;;;;;3.37;2.08;;;-1.00;99.90;-2.10;98600;;;;569291;250;35462;-83
2023/12/24 06:07:42;;;;;;;2.80;1.60;;;-0.90;99.90;-2.10;98606;;;;574404;250;24139;-81
2023/12/24 06:10:10;;;;;;;3.77;1.97;;;-0.90;99.90;-2.00;98603;;;;574504;249;24146;-81
2023/12/24 06:12:38;;;;;;;6.40;1.80;;;-0.80;99.90;-2.00;98616;;;;574267;250;24148;-82
2023/12/24 06:15:06;;;;;;;2.10;1.80;;;-0.80;99.90;-2.00;98613;;;;574170;250;24170;-83
2023/12/24 06:17:34;;;;;;;2.83;1.67;;;-0.80;99.90;-1.90;98605;;;;573154;248;24147;-81
2023/12/24 06:20:03;;;;;;;5.07;2.20;;;-0.80;99.90;-1.90;98618;;;;572948;245;24121;-81
2023/12/24 06:22:30;;;;;;;4.23;1.47;;;-0.70;99.90;-1.90;98611;;;;573787;250;24124;-81
2023/12/24 06:25:01;;;;;;;2.47;1.60;;;-0.70;99.90;-1.90;98610;;;;573768;250;24098;-83
2023/12/24 06:27:27;;;;;;;4.23;1.60;;;-0.70;99.90;-1.90;98618;;;;563536;250;24136;-82
2023/12/24 06:29:54;;;;;;;1.40;1.30;;;-0.70;99.90;-1.90;98611;;;;573218;250;24106;-83
2023/12/24 06:32:22;;;;;;;3.33;1.70;;;-0.70;99.90;-1.80;98613;;;;573650;250;24108;-81
2023/12/24 06:34:50;;;;;;;4.77;1.60;;;-0.60;99.90;-1.80;98610;;;;573498;250;24137;-82
2023/12/24 06:37:18;;;;;;;2.27;1.20;;;-0.60;99.90;-1.80;98603;;;;573716;250;24112;-81
2023/12/24 06:39:46;;;;;;;4.23;1.40;;;-0.60;99.90;-1.70;98610;;;;573913;250;24133;-81
2023/12/24 06:42:14;;;;;;;3.57;1.40;;;-0.60;99.90;-1.70;98620;;;;574288;250;24099;-81
2023/12/24 06:44:44;;;;;;;3.23;1.67;;;-0.50;99.90;-1.70;98614;;;;573704;250;24104;-83
2023/12/24 06:47:13;;;;;;;2.83;1.60;;;-0.50;99.90;-1.70;98619;;;;573458;250;24129;-82
2023/12/24 06:49:44;;;;;;;4.17;1.90;;;-0.50;99.90;-1.70;98618;;;;573888;250;24101;-84
2023/12/24 06:52:09;;;;;;;3.30;1.43;;;-0.50;99.90;-1.70;98612;;;;574110;247;24101;-82
2023/12/24 06:54:37;;;;;;;3.13;1.53;;;-0.50;99.90;-1.70;98615;;;;574389;248;24096;-81
2023/12/24 06:57:12;;;;;;;3.20;1.80;;;-0.50;99.90;-1.70;98619;;;;574309;250;24111;-82
2023/12/24 06:59:36;;;;;;;2.37;1.70;;;-0.60;99.90;-1.70;98626;;;;573642;250;24126;-83
2023/12/24 07:02:04;;;;;;;3.60;1.83;;;-0.50;99.90;-1.70;98622;;;;573604;250;24094;-82
2023/12/24 07:04:32;;;;;;;2.93;1.87;;;-0.60;99.90;-1.80;98630;;;;572955;250;25160;-83
2023/12/24 07:07:01;;;;;;;3.57;2.50;;;-0.60;99.90;-1.80;98616;;;;574574;248;24102;-82
2023/12/24 07:09:29;;;;;;;3.30;1.73;;;-0.60;99.90;-1.80;98620;;;;574574;250;24120;-82
2023/12/24 07:11:57;;;;;;;5.40;2.00;;;-0.60;99.90;-1.80;98610;;;;574470;250;24145;-82
2023/12/24 07:14:28;;;;;;;4.77;2.40;;;-0.60;99.90;-1.70;98615;;;;573704;250;24115;-82
2023/12/24 07:16:53;;;;;;;5.60;2.10;;;-0.50;99.90;-1.70;98605;;;;573513;245;24120;-83
2023/12/24 07:19:21;;;;;;;4.67;2.10;;;-0.50;99.90;-1.70;98612;;;;574393;250;24143;-83
2023/12/24 07:21:48;;;;;;;3.73;2.47;;;-0.70;99.90;-1.60;98620;;;;574470;246;24128;-83
2023/12/24 07:24:16;;;;;;;7.10;2.50;;;-0.50;99.90;-1.60;98614;;;;573846;250;24105;-82
2023/12/24 07:26:45;;;;;;;5.47;2.23;;;-0.40;99.90;-1.60;98617;;;;574018;246;24135;-82
2023/12/24 07:29:13;;;;;;;3.93;1.87;;;-0.40;99.90;-1.50;98617;;;;574113;250;24163;-82
2023/12/24 07:31:41;;;;;;;4.07;2.23;;;-0.40;99.90;-1.50;98612;;;;574117;250;24120;-82
2023/12/24 07:34:09;;;;;;;7.63;2.67;;;-0.30;99.90;-1.50;98626;;;;574148;250;24111;-83
2023/12/24 07:36:37;;;;;;;2.77;1.90;;;-0.30;99.90;-1.50;98629;;;;574115;250;24131;-83
2023/12/24 07:39:05;;;;;;;3.17;2.27;;;-0.30;99.90;-1.40;98626;;;;574138;250;24210;-83
2023/12/24 07:41:33;;;;;;;5.77;2.00;;;-0.20;99.90;-1.40;98629;;;;574231;250;24103;-82
2023/12/24 07:44:01;;;;;;;2.97;2.20;;;-0.20;99.90;-1.30;98627;;;;573437;250;24101;-84
2023/12/24 07:46:29;;;;;;;1.60;1.50;;;-0.20;99.90;-1.30;98630;;;;572517;248;24173;-82
2023/12/24 07:48:57;;;;;;;2.80;2.10;;;-0.10;99.90;-1.30;98634;;;;572922;248;24094;-84
2023/12/24 07:51:25;;;;;;;4.10;2.40;;;0.00;99.90;-1.20;98642;;;;563459;250;24134;-85
2023/12/24 07:53:53;;;;;;;2.97;2.50;;;-0.20;99.90;-1.20;98642;;;;577034;247;25130;-81
2023/12/24 07:56:21;;;;;;;8.20;2.90;;;0.00;99.90;-1.10;98636;;;;588593;238;24068;-82
2023/12/24 07:58:49;;;;;;;4.77;2.30;;;0.10;99.90;-1.10;98637;;;;577971;248;24078;-81
2023/12/24 08:01:17;;;;;;;7.23;2.63;;;0.00;99.90;-1.10;98642;;;;573903;248;24111;-82
2023/12/24 08:03:45;;;;;;;5.23;2.17;;;0.10;99.90;-1.10;98638;;;;570843;247;24134;-81
2023/12/24 08:06:16;;;;;;;6.57;2.67;;;0.20;99.90;-1.00;98641;;;;581062;247;24111;-81
2023/12/24 08:08:41;;;;;;;5.17;2.87;;;0.10;99.90;-1.00;98644;;;;575503;247;24199;-82
2023/12/24 08:11:10;;;;;;;4.50;2.30;;;0.20;99.90;-0.90;98638;;;;580337;243;24086;-83
2023/12/24 08:13:39;;;;;;;4.23;2.03;;;0.20;99.90;-0.90;98643;;;;580805;247;24112;-80
2023/12/24 08:16:10;;;;;;;2.63;2.10;;;0.30;99.90;-0.90;98644;;;;572110;247;24212;-80
2023/12/24 08:18:37;;;;;;;2.70;2.07;;;0.30;99.90;-0.80;98657;;;;576375;247;24177;-82
2023/12/24 08:21:03;;;;;;;4.73;2.10;;;0.40;99.90;-0.80;98643;;;;572763;247;24099;-80
2023/12/24 08:23:31;;;;;;;6.73;2.50;;;0.30;99.90;-0.80;98650;;;;581227;247;24107;-82
2023/12/24 08:25:59;;;;;;;4.00;2.20;;;0.50;99.90;-0.70;98644;;;;581121;247;24089;-82
2023/12/24 08:28:27;;;;;;;2.67;2.17;;;0.50;99.90;-0.70;98645;;;;572504;247;24069;-83
2023/12/24 08:30:55;;;;;;;2.83;2.53;;;0.50;99.90;-0.60;98628;;;;580875;247;24083;-81
2023/12/24 08:33:26;;;;;;;5.13;2.30;;;0.60;99.90;-0.60;98638;;;;580881;247;24084;-81
2023/12/24 08:35:51;;;;;;;4.17;2.37;;;0.60;99.90;-0.50;98644;;;;571558;247;24093;-81
2023/12/24 08:38:19;;;;;;;3.23;2.50;;;0.70;99.90;-0.50;98645;;;;580615;247;24098;-81
2023/12/24 08:40:46;;;;;;;4.03;2.63;;;0.70;99.90;-0.40;98648;;;;586858;243;24140;-81
2023/12/24 08:43:14;;;;;;;7.13;2.60;;;0.90;99.90;-0.40;98646;;;;576410;247;24095;-81
2023/12/24 08:45:42;;;;;;;3.67;2.10;;;0.90;99.90;-0.30;98630;;;;592118;243;24034;-80
2023/12/24 08:48:10;;;;;;;3.37;2.87;;;0.90;99.90;-0.20;98639;;;;574926;247;24076;-80
2023/12/24 08:50:38;;;;;;;4.00;2.93;;;1.00;99.90;-0.20;98631;;;;574913;248;24084;-82
2023/12/24 08:53:06;;;;;;;5.63;2.80;;;1.10;99.90;-0.10;98639;;;;589987;238;24149;-84
2023/12/24 08:55:34;;;;;;;7.60;2.00;;;1.20;99.90;-0.10;98643;;;;574895;247;24065;-84
2023/12/24 08:58:07;;;;;;;3.37;1.87;;;1.20;99.90;0.00;98632;;;;575270;248;24097;-83
2023/12/24 09:00:31;;;;;;;3.67;1.73;;;1.30;99.90;0.10;98637;;;;566993;248;24096;-82
2023/12/24 09:02:59;;;;;;;2.70;1.97;;;1.30;99.90;0.10;98625;;;;590680;243;24049;-83
2023/12/24 09:05:27;;;;;;;3.17;2.27;;;1.40;99.90;0.20;98621;;;;570329;248;24150;-82
2023/12/24 09:07:55;;;;;;;3.33;2.23;;;1.40;99.90;0.30;98634;;;;572255;243;24107;-82
2023/12/24 09:10:23;;;;;;;1.03;0.80;;;1.50;99.90;0.30;98623;;;;576604;248;24113;-82
2023/12/24 09:12:51;;;;;;;2.57;2.00;;;1.50;99.90;0.30;98629;;;;563552;250;24129;-82
2023/12/24 09:15:19;;;;;;;3.63;1.63;;;1.50;99.90;0.30;98624;;;;572886;248;24122;-81
2023/12/24 09:17:48;;;;;;;3.27;1.37;;;1.60;99.90;0.40;98630;;;;580527;246;24087;-81
2023/12/24 09:20:15;;;;;;;5.43;1.50;;;1.60;99.90;0.40;98613;;;;579875;247;24085;-81
2023/12/24 09:22:44;;;;;;;3.10;2.20;;;1.70;99.90;0.50;98611;;;;579828;242;24108;-82
2023/12/24 09:25:12;;;;;;;4.83;1.83;;;1.70;99.90;0.60;98616;;;;579952;242;24159;-81
2023/12/24 09:27:40;;;;;;;2.23;1.03;;;1.80;99.90;0.70;98616;;;;568403;247;24105;-80
2023/12/24 09:30:08;;;;;;;1.93;0.97;;;1.90;99.90;0.80;98619;;;;580931;245;25127;-80
2023/12/24 09:32:36;;;;;;;1.67;1.50;;;2.00;99.90;0.80;98618;;;;572580;247;24073;-81
2023/12/24 09:35:06;;;;;;;4.90;1.63;;;2.10;99.90;0.90;98604;;;;581172;246;24081;-80
2023/12/24 09:37:32;;;;;;;1.57;1.47;;;2.10;99.90;0.90;98601;;;;569554;247;24131;-80
2023/12/24 09:40:00;;;;;;;2.07;0.93;;;2.20;99.90;0.90;98615;;;;580832;246;24104;-79
2023/12/24 09:42:28;;;;;;;4.37;3.00;;;2.20;99.90;0.90;98597;;;;574448;242;24120;-80
2023/12/24 09:44:57;;;;;;;2.33;1.67;;;2.20;99.90;1.00;98595;;;;572774;249;24113;-79
2023/12/24 09:47:25;;;;;;;3.07;1.43;;;2.20;99.90;1.00;98593;;;;569317;247;24112;-80
2023/12/24 09:49:53;;;;;;;1.53;1.43;;;2.30;99.90;1.00;98593;;;;575444;246;25124;-81
2023/12/24 09:52:26;;;;;;;2.03;1.93;;;2.30;99.90;1.00;98584;;;;573745;247;24155;-80
2023/12/24 09:54:50;;;;;;;3.70;3.17;;;2.30;99.90;1.00;98575;;;;564086;250;24149;-79
2023/12/24 09:57:17;;;;;;;9.90;3.50;;;2.30;99.90;1.00;98585;;;;570331;247;24076;-79
2023/12/24 09:59:45;;;;;;;3.87;2.80;;;2.30;99.90;1.10;98581;;;;579678;247;24098;-79
2023/12/24 10:02:14;;;;;;;5.97;2.73;;;2.40;99.90;1.10;98574;;;;575837;246;24116;-80
2023/12/24 10:04:42;;;;;;;10.63;5.05;;;2.40;99.90;1.10;98571;;;;568247;248;35549;-80
2023/12/24 10:07:09;;;;;;;6.30;3.80;;;2.40;99.90;1.20;98566;;;;584366;243;24100;-79
2023/12/24 10:09:49;;;;;;;7.87;3.63;;;2.40;99.90;1.30;98559;;;;579877;247;24100;-80
2023/12/24 10:12:17;;;;;;;6.60;3.60;;;2.50;99.90;1.30;98560;;;;573625;247;24073;-79
2023/12/24 10:14:48;;;;;;;4.43;3.10;;;2.50;99.90;1.30;98551;;;;572476;248;24109;-81
2023/12/24 10:17:16;;;;;;;7.43;4.07;;;2.60;99.90;1.30;98554;;;;561691;248;24078;-79
2023/12/24 10:19:44;;;;;;;4.30;3.33;;;2.60;99.90;1.30;98553;;;;578466;245;24089;-80
2023/12/24 10:22:12;;;;;;;4.23;2.77;;;2.60;99.90;1.30;98560;;;;574008;248;24201;-80
2023/12/24 10:24:44;;;;;;;4.43;3.77;;;2.60;99.90;1.30;98548;;;;572349;248;24090;-81
2023/12/24 10:27:11;;;;;;;5.07;3.07;;;2.60;99.90;1.30;98542;;;;572191;245;24128;-80
2023/12/24 10:29:39;;;;;;;4.80;2.97;;;2.60;99.90;1.30;98552;;;;571243;248;24110;-79
2023/12/24 10:32:09;;;;;;;3.10;2.77;;;2.60;99.90;1.30;98557;;;;571449;251;24114;-80
2023/12/24 10:34:39;;;;;;;10.27;6.15;;;2.60;99.90;1.30;98553;;;;572129;248;35286;-80
2023/12/24 10:37:18;;;;;;;7.67;4.50;;;2.60;99.90;1.30;98545;;;;579540;246;24126;-80
2023/12/24 10:39:46;;;;;;;7.20;3.63;;;2.60;99.90;1.40;98558;;;;576766;247;24101;-80
2023/12/24 10:42:14;;;;;;;4.67;3.47;;;2.60;99.90;1.40;98553;;;;575065;247;24120;-81
2023/12/24 10:44:42;;;;;;;5.53;3.13;;;2.70;99.90;1.40;98554;;;;573539;247;24061;-80
2023/12/24 10:47:10;;;;;;;9.67;3.40;;;2.70;99.90;1.40;98547;;;;571604;247;24081;-81
2023/12/24 10:49:41;;;;;;;5.00;3.97;;;2.70;99.90;1.50;98552;;;;575117;247;24087;-80
2023/12/24 10:52:06;;;;;;;5.60;3.50;;;2.70;99.90;1.50;98548;;;;573173;244;24087;-79
2023/12/24 10:54:34;;;;;;;5.40;3.77;;;2.80;99.90;1.50;98545;;;;572087;248;24092;-80
2023/12/24 10:57:20;;;;;;;8.17;3.37;;;2.80;99.90;1.50;98542;;;;579089;247;24145;-82
2023/12/24 11:00:10;;;;;;;9.57;4.17;;;2.80;99.90;1.50;98531;;;;575933;246;24035;-82
2023/12/24 11:02:39;;;;;;;8.30;3.93;;;2.80;99.90;1.50;98541;;;;577768;246;24169;-80
2023/12/24 11:05:07;;;;;;;2.93;2.73;;;2.80;99.90;1.60;98536;;;;572949;243;24111;-81
2023/12/24 11:07:34;;;;;;;4.80;3.60;;;2.80;99.90;1.50;98529;;;;582617;242;25141;-80
2023/12/24 11:10:02;;;;;;;6.07;3.83;;;2.80;99.90;1.50;98541;;;;559720;252;24162;-78
2023/12/24 11:12:40;;;;;;;10.80;6.20;;;2.80;99.90;1.60;98544;;;;578529;242;35182;-79
2023/12/24 11:15:06;;;;;;;10.30;6.80;;;2.80;99.90;1.60;98541;;;;563910;252;35499;-79
2023/12/24 11:17:37;;;;;;;12.40;7.87;;;2.80;99.90;1.60;98537;;;;586747;242;35196;-79
2023/12/24 11:20:26;;;;;;;6.83;4.73;;;2.80;99.90;1.60;98535;;;;558788;254;24131;-79
2023/12/24 11:23:06;;;;;;;7.57;3.97;;;2.80;99.90;1.60;98530;;;;557833;250;24117;-78
2023/12/24 11:25:42;;;;;;;9.25;5.62;;;2.80;99.90;1.60;98524;;;;577202;246;35370;-80
2023/12/24 11:28:25;;;;;;;4.90;3.70;;;2.90;99.90;1.60;98519;;;;584731;242;24089;-82